Dogpatch, Arkansas
Current Conditions -  °F | °C
As of 10:53 AM on Thursday 30 Oct 2014 (Local Time) from KHRO Reporting Station
Clear Clear  
Wind Chill: 59°   Ceiling: Unl
Heat Index: 59°   Visibility: 10mi
Dew Point: 45°   Wind: 7mph
Humidity: 60%   Direction: 110°ESE
Pressure: 30.11"   Gusts: NA
Location:  36.0842°N, 93.1502°W
Report Text: KHRO 301553Z AUTO 11006KT 10SM CLR 15/07 A3011 RMK AO2 SLP193 T01500072
Loading
Personal Weather Stations






























Interactive Weather Map New forecast layout! Learn more

10-Day Weather Forecast

Advertisements
Track Severe Weather on mobile